createdAt,value
2023-02-23T00:01:57.539Z,4.19
2023-02-23T00:04:24.863Z,4.14
2023-02-23T00:07:02.094Z,4.09
2023-02-23T00:09:35.373Z,4.20
2023-02-23T00:12:10.877Z,4.33
2023-02-23T00:14:39.895Z,4.40
2023-02-23T00:17:14.273Z,4.30
2023-02-23T00:19:46.050Z,4.25
2023-02-23T00:22:12.863Z,4.53
2023-02-23T00:24:42.863Z,4.39
2023-02-23T00:27:09.634Z,4.26
2023-02-23T00:29:39.861Z,4.24
2023-02-23T00:32:06.700Z,4.23
2023-02-23T00:34:33.548Z,4.17
2023-02-23T00:37:00.127Z,4.16
2023-02-23T00:39:29.552Z,4.17
2023-02-23T00:41:56.617Z,4.22
2023-02-23T00:44:35.683Z,4.27
2023-02-23T00:47:03.428Z,4.31
2023-02-23T00:49:30.391Z,4.33
2023-02-23T00:51:56.832Z,4.02
2023-02-23T00:54:23.483Z,4.03
2023-02-23T00:56:51.349Z,4.25
2023-02-23T00:59:40.727Z,4.10
2023-02-23T01:02:10.356Z,4.24
2023-02-23T01:04:36.763Z,4.03
2023-02-23T01:07:09.640Z,4.20
2023-02-23T01:09:36.246Z,4.07
2023-02-23T01:12:12.361Z,4.07
2023-02-23T01:14:38.860Z,4.05
2023-02-23T01:17:10.271Z,4.14
2023-02-23T01:20:14.123Z,4.09
2023-02-23T01:22:40.642Z,4.02
2023-02-23T01:25:12.541Z,4.14
2023-02-23T01:27:49.600Z,3.99
2023-02-23T01:30:22.403Z,4.09
2023-02-23T01:32:59.089Z,4.11
2023-02-23T01:35:25.808Z,3.91
2023-02-23T01:37:55.811Z,3.83
2023-02-23T01:40:31.744Z,3.91
2023-02-23T01:43:25.720Z,3.95
2023-02-23T01:46:18.533Z,3.92
2023-02-23T01:48:45.581Z,3.81
2023-02-23T01:51:18.654Z,3.76
2023-02-23T01:53:52.606Z,3.80
2023-02-23T01:56:21.656Z,3.71
2023-02-23T01:58:52.524Z,3.68
2023-02-23T02:01:19.850Z,3.78
2023-02-23T02:06:26.623Z,3.69
2023-02-23T02:08:55.291Z,3.62
2023-02-23T02:11:39.080Z,3.70
2023-02-23T02:14:05.796Z,3.73
2023-02-23T02:16:32.221Z,3.75
2023-02-23T02:19:19.143Z,3.73
2023-02-23T02:22:05.034Z,3.71
2023-02-23T02:24:34.544Z,3.53
2023-02-23T02:27:25.515Z,3.67
2023-02-23T02:30:13.887Z,3.72
2023-02-23T02:32:59.601Z,3.65
2023-02-23T02:35:44.412Z,3.76
2023-02-23T02:38:26.237Z,3.58
2023-02-23T02:41:04.507Z,3.71
2023-02-23T02:43:55.388Z,3.69
2023-02-23T02:46:36.602Z,3.70
2023-02-23T02:49:25.195Z,3.62
2023-02-23T02:52:06.272Z,3.67
2023-02-23T02:54:42.153Z,3.52
2023-02-23T02:57:11.442Z,3.66
2023-02-23T03:03:14.154Z,3.70
2023-02-23T03:06:10.005Z,3.55
2023-02-23T03:12:17.076Z,3.52
2023-02-23T03:15:09.590Z,3.52
2023-02-23T03:18:11.533Z,3.54
2023-02-23T03:21:02.581Z,3.53
2023-02-23T03:23:56.668Z,3.36
2023-02-23T03:27:04.886Z,3.49
2023-02-23T03:29:57.558Z,3.31
2023-02-23T03:32:50.619Z,3.36
2023-02-23T03:35:42.239Z,3.38
2023-02-23T03:39:02.920Z,3.38
2023-02-23T03:41:51.602Z,3.41
2023-02-23T03:44:57.311Z,3.46
2023-02-23T03:47:44.833Z,3.19
2023-02-23T03:50:45.415Z,3.26
2023-02-23T03:53:39.166Z,3.22
2023-02-23T03:56:25.085Z,3.15
2023-02-23T03:59:13.297Z,3.05
2023-02-23T04:01:58.763Z,3.26
2023-02-23T04:04:46.174Z,3.15
2023-02-23T04:07:38.262Z,3.13
2023-02-23T04:10:24.359Z,3.10
2023-02-23T04:13:16.077Z,2.98
2023-02-23T04:15:42.463Z,3.05
2023-02-23T04:18:12.706Z,2.89
2023-02-23T04:20:39.095Z,2.86
2023-02-23T04:23:06.377Z,3.07
2023-02-23T04:25:32.968Z,2.70
2023-02-23T04:27:59.788Z,2.76
2023-02-23T04:30:28.761Z,2.81
2023-02-23T04:32:55.592Z,2.93
2023-02-23T04:35:23.614Z,2.94
2023-02-23T04:37:54.424Z,2.89
2023-02-23T04:40:22.773Z,2.88
2023-02-23T04:42:57.119Z,2.89
2023-02-23T04:45:24.761Z,2.87
2023-02-23T04:48:02.243Z,2.91
2023-02-23T04:50:30.553Z,2.80
2023-02-23T04:52:58.109Z,2.67
2023-02-23T04:58:32.479Z,2.52
2023-02-23T05:01:07.633Z,2.65
2023-02-23T05:03:35.778Z,2.60
2023-02-23T05:06:02.598Z,2.58
2023-02-23T05:08:29.566Z,2.61
2023-02-23T05:10:55.979Z,2.69
2023-02-23T05:13:22.605Z,2.76
2023-02-23T05:15:50.890Z,2.72
2023-02-23T05:18:18.162Z,2.67
2023-02-23T05:20:45.847Z,2.62
2023-02-23T05:23:12.310Z,2.73
2023-02-23T05:25:39.697Z,2.63
2023-02-23T05:28:08.763Z,2.45
2023-02-23T05:30:36.185Z,2.53
2023-02-23T05:33:02.728Z,2.39
2023-02-23T05:35:52.243Z,2.39
2023-02-23T05:38:20.093Z,2.49
2023-02-23T05:40:46.651Z,2.52
2023-02-23T05:43:13.732Z,2.45
2023-02-23T05:45:41.435Z,2.49
2023-02-23T05:48:08.933Z,2.50
2023-02-23T05:50:37.777Z,2.29
2023-02-23T05:53:04.554Z,2.36
2023-02-23T05:55:31.693Z,2.48
2023-02-23T05:57:58.478Z,2.14
2023-02-23T06:00:25.483Z,2.16
2023-02-23T06:02:55.239Z,2.07
2023-02-23T06:05:26.879Z,2.08
2023-02-23T06:11:26.139Z,2.32
2023-02-23T06:13:53.077Z,2.43
2023-02-23T06:16:21.372Z,2.24
2023-02-23T06:18:50.295Z,2.27
2023-02-23T06:21:17.378Z,2.14
2023-02-23T06:23:58.512Z,2.29
2023-02-23T06:26:28.614Z,2.24
2023-02-23T06:28:58.375Z,2.06
2023-02-23T06:31:31.292Z,1.99
2023-02-23T06:34:13.886Z,1.99
2023-02-23T06:36:54.549Z,2.05
2023-02-23T06:39:23.302Z,2.08
2023-02-23T06:45:10.985Z,2.43
2023-02-23T06:54:05.643Z,2.40
2023-02-23T07:14:03.536Z,3.00
2023-02-23T07:41:25.476Z,3.89
2023-02-23T07:44:41.217Z,4.13
2023-02-23T08:18:54.465Z,4.93
2023-02-23T08:21:50.947Z,4.92
2023-02-23T08:41:30.758Z,5.35
2023-02-23T08:44:43.541Z,5.55
2023-02-23T08:58:07.085Z,5.86
2023-02-23T09:11:00.642Z,6.23
2023-02-23T09:13:36.613Z,6.06
2023-02-23T09:16:06.865Z,6.06
2023-02-23T09:18:38.029Z,6.05
2023-02-23T09:21:33.346Z,6.13
2023-02-23T09:24:34.236Z,6.32
2023-02-23T09:27:06.988Z,6.36
2023-02-23T09:29:39.482Z,6.06
2023-02-23T09:32:15.239Z,6.14
2023-02-23T09:34:56.289Z,6.26
2023-02-23T09:37:28.792Z,6.30
2023-02-23T09:39:58.053Z,6.36
2023-02-23T09:42:44.586Z,6.47
2023-02-23T09:48:36.833Z,6.59
2023-02-23T09:51:14.310Z,6.56
2023-02-23T09:56:51.758Z,6.79
2023-02-23T09:59:40.099Z,6.32
2023-02-23T10:02:18.904Z,6.49
2023-02-23T10:04:58.604Z,6.70
2023-02-23T10:07:28.258Z,7.13
2023-02-23T10:10:02.925Z,7.20
2023-02-23T10:12:44.266Z,7.09
2023-02-23T10:15:14.415Z,7.12
2023-02-23T10:18:14.085Z,7.02
2023-02-23T10:20:47.065Z,7.50
2023-02-23T10:23:17.025Z,7.59
2023-02-23T10:25:46.379Z,7.42
2023-02-23T10:28:17.324Z,7.55
2023-02-23T10:30:45.386Z,7.73
2023-02-23T10:33:22.829Z,7.91
2023-02-23T10:36:12.760Z,7.90
2023-02-23T10:38:42.650Z,8.13
2023-02-23T10:41:10.102Z,8.13
2023-02-23T10:43:38.957Z,8.21
2023-02-23T10:46:07.111Z,8.31
2023-02-23T10:48:40.032Z,8.38
2023-02-23T10:51:07.687Z,8.34
2023-02-23T10:53:35.940Z,8.66
2023-02-23T10:56:05.588Z,8.75
2023-02-23T10:58:42.352Z,8.73
2023-02-23T11:01:09.264Z,8.55
2023-02-23T11:07:02.490Z,8.93
2023-02-23T11:16:31.499Z,8.81
2023-02-23T11:19:02.154Z,8.83
2023-02-23T11:21:35.574Z,9.06
2023-02-23T11:24:08.527Z,9.22
2023-02-23T11:26:40.982Z,9.30
2023-02-23T11:29:16.507Z,9.09
2023-02-23T11:32:01.468Z,9.12
2023-02-23T11:34:32.849Z,9.22
2023-02-23T11:37:01.337Z,9.52
2023-02-23T11:39:35.161Z,9.12
2023-02-23T11:42:13.008Z,9.20
2023-02-23T11:44:39.475Z,9.19
2023-02-23T11:47:06.340Z,9.36
2023-02-23T11:49:36.503Z,9.72
2023-02-23T11:52:05.959Z,9.32
2023-02-23T11:54:38.942Z,9.56
2023-02-23T11:57:09.293Z,9.44
2023-02-23T11:59:40.454Z,9.69
2023-02-23T12:02:20.860Z,9.40
2023-02-23T12:04:47.854Z,9.58
2023-02-23T12:07:41.935Z,9.82
2023-02-23T12:10:29.576Z,9.74
2023-02-23T12:13:00.669Z,9.97
2023-02-23T12:15:35.799Z,9.71
2023-02-23T12:18:22.817Z,10.01
2023-02-23T12:20:50.706Z,10.24
2023-02-23T12:23:22.034Z,9.98
2023-02-23T12:26:01.971Z,9.98
2023-02-23T12:28:37.637Z,9.98
2023-02-23T12:31:07.416Z,9.98
2023-02-23T12:33:36.580Z,9.73
2023-02-23T12:36:05.961Z,9.91
2023-02-23T12:38:35.566Z,10.12
2023-02-23T12:41:06.332Z,9.92
2023-02-23T12:43:37.992Z,9.97
2023-02-23T12:46:26.574Z,10.15
2023-02-23T12:49:05.650Z,10.17
2023-02-23T12:52:02.299Z,10.18
2023-02-23T12:54:35.677Z,10.15
2023-02-23T12:57:05.198Z,10.04
2023-02-23T12:59:34.550Z,10.00
2023-02-23T13:02:24.834Z,10.05
2023-02-23T13:05:08.057Z,10.09
2023-02-23T13:07:41.913Z,10.21
2023-02-23T13:10:27.189Z,10.06
2023-02-23T13:13:16.286Z,10.16
2023-02-23T13:15:59.278Z,9.86
2023-02-23T13:18:35.729Z,9.89
2023-02-23T13:21:10.233Z,9.90
2023-02-23T13:23:55.554Z,9.98
2023-02-23T13:26:28.701Z,9.64
2023-02-23T13:28:59.720Z,9.87
2023-02-23T13:31:28.347Z,9.94
2023-02-23T13:33:56.788Z,9.70
2023-02-23T13:36:23.572Z,9.86
2023-02-23T13:39:05.009Z,10.11
2023-02-23T13:41:40.976Z,9.78
2023-02-23T13:44:16.645Z,9.70
2023-02-23T13:46:50.573Z,9.54
2023-02-23T13:49:35.847Z,9.56
2023-02-23T13:53:08.061Z,9.40
2023-02-23T13:55:48.611Z,9.39
2023-02-23T13:58:17.565Z,9.43
2023-02-23T14:00:50.042Z,9.32
2023-02-23T14:03:21.674Z,9.53
2023-02-23T14:05:52.549Z,9.38
2023-02-23T14:08:32.608Z,9.23
2023-02-23T14:10:59.029Z,9.40
2023-02-23T14:13:54.263Z,9.63
2023-02-23T14:16:21.017Z,9.43
2023-02-23T14:19:06.159Z,9.30
2023-02-23T14:21:37.898Z,9.15
2023-02-23T14:24:13.050Z,9.32
2023-02-23T14:26:43.813Z,9.31
2023-02-23T14:29:20.681Z,9.50
2023-02-23T14:32:01.565Z,9.42
2023-02-23T14:34:48.273Z,9.46
2023-02-23T14:37:17.056Z,9.23
2023-02-23T14:39:43.712Z,9.27
2023-02-23T14:42:19.876Z,9.32
2023-02-23T14:44:59.105Z,9.36
2023-02-23T14:47:26.868Z,9.19
2023-02-23T14:50:00.036Z,9.25
2023-02-23T14:52:35.644Z,9.06
2023-02-23T14:55:11.178Z,9.13
2023-02-23T14:57:38.738Z,9.10
2023-02-23T15:00:13.098Z,9.17
2023-02-23T15:02:54.134Z,9.21
2023-02-23T15:05:23.164Z,9.08
2023-02-23T15:07:52.072Z,9.03
2023-02-23T15:10:22.391Z,9.08
2023-02-23T15:12:48.946Z,9.03
2023-02-23T15:15:19.962Z,9.08
2023-02-23T15:17:47.735Z,8.97
2023-02-23T15:20:17.200Z,9.00
2023-02-23T15:22:46.883Z,9.07
2023-02-23T15:25:18.489Z,9.00
2023-02-23T15:27:45.767Z,9.05
2023-02-23T15:30:18.672Z,8.83
2023-02-23T15:32:45.597Z,8.85
2023-02-23T15:35:13.034Z,8.76
2023-02-23T15:38:05.767Z,8.97
2023-02-23T16:07:28.021Z,8.82
2023-02-23T16:17:12.315Z,8.53
2023-02-23T16:19:44.160Z,8.42
2023-02-23T16:22:20.254Z,8.22
2023-02-23T16:24:49.769Z,8.32
2023-02-23T16:27:23.254Z,8.35
2023-02-23T16:29:56.583Z,8.30
2023-02-23T16:32:26.164Z,7.98
2023-02-23T16:35:42.247Z,8.05
2023-02-23T16:38:13.679Z,8.22
2023-02-23T16:40:41.057Z,8.13
2023-02-23T16:43:08.229Z,8.06
2023-02-23T16:45:34.964Z,8.26
2023-02-23T16:48:02.421Z,8.00
2023-02-23T16:50:29.425Z,8.11
2023-02-23T16:52:55.809Z,8.12
2023-02-23T16:55:29.104Z,8.13
2023-02-23T16:58:06.265Z,8.00
2023-02-23T17:00:54.984Z,8.13
2023-02-23T17:27:41.510Z,7.88
2023-02-23T17:30:52.485Z,7.71
2023-02-23T17:33:18.998Z,7.86
2023-02-23T17:35:46.153Z,7.95
2023-02-23T17:38:12.999Z,7.83
2023-02-23T17:40:42.596Z,7.75
2023-02-23T17:43:18.302Z,7.85
2023-02-23T17:45:48.348Z,7.74
2023-02-23T17:48:15.268Z,7.77
2023-02-23T17:51:11.752Z,7.71
2023-02-23T17:53:46.195Z,7.78
2023-02-23T17:56:13.232Z,7.78
2023-02-23T17:58:44.075Z,7.87
2023-02-23T18:01:11.013Z,7.84
2023-02-23T18:03:50.145Z,7.80
2023-02-23T18:06:17.307Z,7.76
2023-02-23T18:09:28.913Z,7.94
2023-02-23T18:11:56.753Z,7.91
2023-02-23T18:14:28.946Z,7.89
2023-02-23T18:17:03.438Z,7.81
2023-02-23T18:19:48.040Z,7.69
2023-02-23T18:22:38.441Z,7.80
2023-02-23T18:25:05.319Z,7.86
2023-02-23T18:27:32.237Z,7.73
2023-02-23T18:29:58.779Z,7.67
2023-02-23T18:32:25.706Z,7.76
2023-02-23T18:35:01.562Z,7.70
2023-02-23T18:37:28.890Z,7.65
2023-02-23T18:41:00.234Z,7.66
2023-02-23T18:43:52.404Z,7.68
2023-02-23T18:46:36.026Z,7.63
2023-02-23T18:49:59.242Z,7.64
2023-02-23T18:52:37.529Z,7.58
2023-02-23T18:58:10.019Z,7.53
2023-02-23T19:03:55.602Z,7.46
2023-02-23T19:06:23.447Z,7.58
2023-02-23T19:12:47.044Z,7.64
2023-02-23T19:15:15.993Z,7.65
2023-02-23T19:17:42.586Z,7.56
2023-02-23T19:20:13.474Z,7.42
2023-02-23T19:22:41.114Z,7.42
2023-02-23T22:24:09.756Z,6.40
2023-02-23T22:26:37.772Z,6.19
2023-02-23T22:29:07.457Z,6.44
2023-02-23T22:31:37.522Z,6.31
2023-02-23T22:34:09.233Z,6.26
2023-02-23T22:36:51.005Z,6.27
2023-02-23T22:39:18.932Z,6.36
2023-02-23T22:41:46.322Z,6.25
2023-02-23T22:44:25.803Z,6.24
2023-02-23T22:46:53.279Z,6.25
2023-02-23T22:49:20.490Z,6.43
2023-02-23T22:51:54.715Z,6.36
2023-02-23T22:57:59.172Z,6.51
2023-02-23T23:00:34.587Z,6.48
2023-02-23T23:03:05.259Z,6.41
2023-02-23T23:05:32.955Z,6.22
2023-02-23T23:08:10.304Z,6.39
2023-02-23T23:10:39.441Z,6.18
2023-02-23T23:13:15.203Z,6.15
2023-02-23T23:15:50.382Z,6.05
2023-02-23T23:18:23.671Z,6.21
2023-02-23T23:20:58.040Z,6.23
2023-02-23T23:23:26.213Z,6.22
2023-02-23T23:26:00.598Z,6.13
2023-02-23T23:28:28.714Z,6.20
2023-02-23T23:30:56.253Z,6.31
2023-02-23T23:33:24.337Z,6.07
2023-02-23T23:35:54.870Z,6.03
2023-02-23T23:38:36.102Z,5.98
